sensor_id;sensor_type;location;lat;lon;timestamp;P1;durP1;ratioP1;P2;durP2;ratioP2
79137;SDS011;68544;45.566;10.238;2023-04-24T00:01:34;9.70;;;8.17;;
79137;SDS011;68544;45.566;10.238;2023-04-24T00:04:01;8.18;;;7.00;;
79137;SDS011;68544;45.566;10.238;2023-04-24T00:06:28;8.25;;;6.75;;
79137;SDS011;68544;45.566;10.238;2023-04-24T00:08:58;12.15;;;7.57;;
79137;SDS011;68544;45.566;10.238;2023-04-24T00:11:25;10.05;;;8.18;;
79137;SDS011;68544;45.566;10.238;2023-04-24T00:13:50;9.68;;;7.50;;
79137;SDS011;68544;45.566;10.238;2023-04-24T00:16:16;10.27;;;8.10;;
79137;SDS011;68544;45.566;10.238;2023-04-24T00:18:41;9.70;;;8.70;;
79137;SDS011;68544;45.566;10.238;2023-04-24T00:21:06;10.20;;;9.17;;
79137;SDS011;68544;45.566;10.238;2023-04-24T00:23:32;10.25;;;9.15;;
79137;SDS011;68544;45.566;10.238;2023-04-24T00:25:57;10.93;;;9.83;;
79137;SDS011;68544;45.566;10.238;2023-04-24T00:28:22;10.50;;;9.40;;
79137;SDS011;68544;45.566;10.238;2023-04-24T00:30:48;10.13;;;9.13;;
79137;SDS011;68544;45.566;10.238;2023-04-24T00:33:13;12.23;;;9.80;;
79137;SDS011;68544;45.566;10.238;2023-04-24T00:38:05;13.10;;;10.07;;
79137;SDS011;68544;45.566;10.238;2023-04-24T00:40:30;10.80;;;9.70;;
79137;SDS011;68544;45.566;10.238;2023-04-24T00:42:56;11.47;;;10.33;;
79137;SDS011;68544;45.566;10.238;2023-04-24T00:45:21;10.05;;;8.85;;
79137;SDS011;68544;45.566;10.238;2023-04-24T00:47:46;11.00;;;9.90;;
79137;SDS011;68544;45.566;10.238;2023-04-24T00:50:14;11.63;;;8.13;;
79137;SDS011;68544;45.566;10.238;2023-04-24T00:52:40;10.75;;;9.20;;
79137;SDS011;68544;45.566;10.238;2023-04-24T00:55:06;11.93;;;10.20;;
79137;SDS011;68544;45.566;10.238;2023-04-24T00:57:32;12.15;;;9.80;;
79137;SDS011;68544;45.566;10.238;2023-04-24T00:59:57;11.95;;;9.63;;
79137;SDS011;68544;45.566;10.238;2023-04-24T01:02:23;10.27;;;9.30;;
79137;SDS011;68544;45.566;10.238;2023-04-24T01:07:16;9.70;;;8.70;;
79137;SDS011;68544;45.566;10.238;2023-04-24T01:09:45;9.23;;;8.35;;
79137;SDS011;68544;45.566;10.238;2023-04-24T01:12:13;9.85;;;8.82;;
79137;SDS011;68544;45.566;10.238;2023-04-24T01:17:05;10.13;;;9.13;;
79137;SDS011;68544;45.566;10.238;2023-04-24T01:19:31;9.77;;;8.77;;
79137;SDS011;68544;45.566;10.238;2023-04-24T01:21:58;11.50;;;8.82;;
79137;SDS011;68544;45.566;10.238;2023-04-24T01:24:27;12.13;;;9.20;;
79137;SDS011;68544;45.566;10.238;2023-04-24T01:26:53;10.93;;;9.68;;
79137;SDS011;68544;45.566;10.238;2023-04-24T01:29:19;11.13;;;9.73;;
79137;SDS011;68544;45.566;10.238;2023-04-24T01:31:44;13.05;;;10.43;;
79137;SDS011;68544;45.566;10.238;2023-04-24T01:34:10;11.90;;;10.07;;
79137;SDS011;68544;45.566;10.238;2023-04-24T01:36:35;10.40;;;9.10;;
79137;SDS011;68544;45.566;10.238;2023-04-24T01:39:01;10.52;;;9.38;;
79137;SDS011;68544;45.566;10.238;2023-04-24T01:43:53;11.13;;;9.95;;
79137;SDS011;68544;45.566;10.238;2023-04-24T01:46:18;10.07;;;9.07;;
79137;SDS011;68544;45.566;10.238;2023-04-24T01:48:44;11.88;;;8.82;;
79137;SDS011;68544;45.566;10.238;2023-04-24T01:51:10;9.27;;;8.13;;
79137;SDS011;68544;45.566;10.238;2023-04-24T01:53:35;11.07;;;8.37;;
79137;SDS011;68544;45.566;10.238;2023-04-24T01:56:01;12.30;;;8.20;;
79137;SDS011;68544;45.566;10.238;2023-04-24T01:58:26;11.25;;;8.23;;
79137;SDS011;68544;45.566;10.238;2023-04-24T02:00:52;10.20;;;8.25;;
79137;SDS011;68544;45.566;10.238;2023-04-24T02:03:17;9.53;;;7.73;;
79137;SDS011;68544;45.566;10.238;2023-04-24T02:05:45;9.53;;;8.00;;
79137;SDS011;68544;45.566;10.238;2023-04-24T02:08:10;10.55;;;8.20;;
79137;SDS011;68544;45.566;10.238;2023-04-24T02:10:36;10.67;;;7.73;;
79137;SDS011;68544;45.566;10.238;2023-04-24T02:13:01;8.43;;;7.60;;
79137;SDS011;68544;45.566;10.238;2023-04-24T02:15:27;9.10;;;8.20;;
79137;SDS011;68544;45.566;10.238;2023-04-24T02:17:52;9.17;;;8.20;;
79137;SDS011;68544;45.566;10.238;2023-04-24T02:20:17;10.53;;;8.50;;
79137;SDS011;68544;45.566;10.238;2023-04-24T02:22:43;10.83;;;8.37;;
79137;SDS011;68544;45.566;10.238;2023-04-24T02:25:08;10.50;;;8.83;;
79137;SDS011;68544;45.566;10.238;2023-04-24T02:27:34;12.23;;;9.48;;
79137;SDS011;68544;45.566;10.238;2023-04-24T02:29:59;9.73;;;8.80;;
79137;SDS011;68544;45.566;10.238;2023-04-24T02:32:25;10.60;;;9.07;;
79137;SDS011;68544;45.566;10.238;2023-04-24T02:34:50;12.97;;;10.57;;
79137;SDS011;68544;45.566;10.238;2023-04-24T02:37:16;11.90;;;9.23;;
79137;SDS011;68544;45.566;10.238;2023-04-24T02:39:41;12.60;;;9.83;;
79137;SDS011;68544;45.566;10.238;2023-04-24T02:42:06;11.27;;;9.83;;
79137;SDS011;68544;45.566;10.238;2023-04-24T02:46:58;10.15;;;8.40;;
79137;SDS011;68544;45.566;10.238;2023-04-24T02:49:23;9.50;;;8.33;;
79137;SDS011;68544;45.566;10.238;2023-04-24T02:51:49;11.30;;;10.20;;
79137;SDS011;68544;45.566;10.238;2023-04-24T02:54:14;12.43;;;10.03;;
79137;SDS011;68544;45.566;10.238;2023-04-24T02:56:39;10.80;;;9.80;;
79137;SDS011;68544;45.566;10.238;2023-04-24T02:59:05;11.02;;;9.95;;
79137;SDS011;68544;45.566;10.238;2023-04-24T03:01:30;10.00;;;9.00;;
79137;SDS011;68544;45.566;10.238;2023-04-24T03:03:56;11.50;;;9.40;;
79137;SDS011;68544;45.566;10.238;2023-04-24T03:06:21;12.07;;;8.40;;
79137;SDS011;68544;45.566;10.238;2023-04-24T03:08:47;11.80;;;9.40;;
79137;SDS011;68544;45.566;10.238;2023-04-24T03:11:12;11.13;;;9.40;;
79137;SDS011;68544;45.566;10.238;2023-04-24T03:13:37;11.17;;;10.07;;
79137;SDS011;68544;45.566;10.238;2023-04-24T03:16:03;9.90;;;8.90;;
79137;SDS011;68544;45.566;10.238;2023-04-24T03:18:29;11.25;;;9.80;;
79137;SDS011;68544;45.566;10.238;2023-04-24T03:20:54;11.77;;;9.50;;
79137;SDS011;68544;45.566;10.238;2023-04-24T03:23:19;10.57;;;9.47;;
79137;SDS011;68544;45.566;10.238;2023-04-24T03:25:45;11.27;;;9.43;;
79137;SDS011;68544;45.566;10.238;2023-04-24T03:28:10;10.80;;;9.60;;
79137;SDS011;68544;45.566;10.238;2023-04-24T03:30:35;11.00;;;9.80;;
79137;SDS011;68544;45.566;10.238;2023-04-24T03:33:01;14.10;;;10.53;;
79137;SDS011;68544;45.566;10.238;2023-04-24T03:35:26;13.07;;;10.13;;
79137;SDS011;68544;45.566;10.238;2023-04-24T03:37:52;11.60;;;9.77;;
79137;SDS011;68544;45.566;10.238;2023-04-24T03:40:17;11.67;;;10.37;;
79137;SDS011;68544;45.566;10.238;2023-04-24T03:42:42;12.87;;;9.57;;
79137;SDS011;68544;45.566;10.238;2023-04-24T03:45:08;11.07;;;9.97;;
79137;SDS011;68544;45.566;10.238;2023-04-24T03:47:33;11.82;;;9.68;;
79137;SDS011;68544;45.566;10.238;2023-04-24T03:49:59;13.27;;;9.27;;
79137;SDS011;68544;45.566;10.238;2023-04-24T03:52:24;11.57;;;9.50;;
79137;SDS011;68544;45.566;10.238;2023-04-24T03:54:49;10.07;;;8.70;;
79137;SDS011;68544;45.566;10.238;2023-04-24T03:57:15;10.33;;;9.27;;
79137;SDS011;68544;45.566;10.238;2023-04-24T03:59:40;13.03;;;10.07;;
79137;SDS011;68544;45.566;10.238;2023-04-24T04:02:05;14.07;;;10.63;;
79137;SDS011;68544;45.566;10.238;2023-04-24T04:04:31;10.83;;;9.30;;
79137;SDS011;68544;45.566;10.238;2023-04-24T04:06:56;10.77;;;8.97;;
79137;SDS011;68544;45.566;10.238;2023-04-24T04:09:21;12.90;;;9.87;;
79137;SDS011;68544;45.566;10.238;2023-04-24T04:11:47;12.20;;;10.97;;
79137;SDS011;68544;45.566;10.238;2023-04-24T04:14:12;12.00;;;10.30;;
79137;SDS011;68544;45.566;10.238;2023-04-24T04:16:37;10.37;;;9.27;;
79137;SDS011;68544;45.566;10.238;2023-04-24T04:19:03;12.02;;;10.85;;
79137;SDS011;68544;45.566;10.238;2023-04-24T04:21:29;12.40;;;11.20;;
79137;SDS011;68544;45.566;10.238;2023-04-24T04:23:56;13.43;;;11.80;;
79137;SDS011;68544;45.566;10.238;2023-04-24T04:26:21;14.63;;;12.98;;
79137;SDS011;68544;45.566;10.238;2023-04-24T04:28:50;13.07;;;11.68;;
79137;SDS011;68544;45.566;10.238;2023-04-24T04:31:16;13.10;;;11.88;;
79137;SDS011;68544;45.566;10.238;2023-04-24T04:33:41;12.93;;;11.67;;
79137;SDS011;68544;45.566;10.238;2023-04-24T04:36:06;12.23;;;11.03;;
79137;SDS011;68544;45.566;10.238;2023-04-24T04:38:32;13.13;;;11.68;;
79137;SDS011;68544;45.566;10.238;2023-04-24T04:40:58;12.98;;;11.65;;
79137;SDS011;68544;45.566;10.238;2023-04-24T04:43:24;12.67;;;11.47;;
79137;SDS011;68544;45.566;10.238;2023-04-24T04:45:49;11.27;;;10.32;;
79137;SDS011;68544;45.566;10.238;2023-04-24T04:48:16;10.07;;;8.77;;
79137;SDS011;68544;45.566;10.238;2023-04-24T04:50:43;9.68;;;8.35;;
79137;SDS011;68544;45.566;10.238;2023-04-24T04:53:09;10.70;;;8.88;;
79137;SDS011;68544;45.566;10.238;2023-04-24T04:55:34;11.37;;;8.23;;
79137;SDS011;68544;45.566;10.238;2023-04-24T04:58:00;9.67;;;6.70;;
79137;SDS011;68544;45.566;10.238;2023-04-24T05:00:25;8.45;;;5.80;;
79137;SDS011;68544;45.566;10.238;2023-04-24T05:05:17;7.15;;;5.70;;
79137;SDS011;68544;45.566;10.238;2023-04-24T05:07:43;8.07;;;5.80;;
79137;SDS011;68544;45.566;10.238;2023-04-24T05:10:09;6.35;;;5.75;;
79137;SDS011;68544;45.566;10.238;2023-04-24T05:12:34;7.03;;;6.43;;
79137;SDS011;68544;45.566;10.238;2023-04-24T05:14:59;8.10;;;7.30;;
79137;SDS011;68544;45.566;10.238;2023-04-24T05:17:25;8.70;;;6.90;;
79137;SDS011;68544;45.566;10.238;2023-04-24T05:19:51;7.97;;;6.85;;
79137;SDS011;68544;45.566;10.238;2023-04-24T05:22:16;4.97;;;4.33;;
79137;SDS011;68544;45.566;10.238;2023-04-24T05:24:43;4.50;;;4.03;;
79137;SDS011;68544;45.566;10.238;2023-04-24T05:27:08;4.60;;;3.73;;
79137;SDS011;68544;45.566;10.238;2023-04-24T05:29:34;3.73;;;3.20;;
79137;SDS011;68544;45.566;10.238;2023-04-24T05:31:59;3.53;;;3.03;;
79137;SDS011;68544;45.566;10.238;2023-04-24T05:34:25;3.75;;;3.03;;
79137;SDS011;68544;45.566;10.238;2023-04-24T05:36:51;4.32;;;3.83;;
79137;SDS011;68544;45.566;10.238;2023-04-24T05:39:16;3.85;;;3.00;;
79137;SDS011;68544;45.566;10.238;2023-04-24T05:41:42;3.35;;;2.70;;
79137;SDS011;68544;45.566;10.238;2023-04-24T05:44:08;3.97;;;3.58;;
79137;SDS011;68544;45.566;10.238;2023-04-24T05:46:33;5.88;;;4.63;;
79137;SDS011;68544;45.566;10.238;2023-04-24T05:48:59;5.90;;;4.90;;
79137;SDS011;68544;45.566;10.238;2023-04-24T05:51:24;6.83;;;6.13;;
79137;SDS011;68544;45.566;10.238;2023-04-24T05:53:50;8.75;;;6.68;;
79137;SDS011;68544;45.566;10.238;2023-04-24T05:56:16;8.55;;;6.90;;
79137;SDS011;68544;45.566;10.238;2023-04-24T05:58:41;7.23;;;6.53;;
79137;SDS011;68544;45.566;10.238;2023-04-24T06:01:07;9.27;;;6.30;;
79137;SDS011;68544;45.566;10.238;2023-04-24T06:03:32;9.27;;;5.80;;
79137;SDS011;68544;45.566;10.238;2023-04-24T06:05:57;10.17;;;7.13;;
79137;SDS011;68544;45.566;10.238;2023-04-24T06:08:23;7.20;;;6.33;;
79137;SDS011;68544;45.566;10.238;2023-04-24T06:10:48;7.67;;;6.90;;
79137;SDS011;68544;45.566;10.238;2023-04-24T06:13:13;7.63;;;6.67;;
79137;SDS011;68544;45.566;10.238;2023-04-24T06:15:39;7.87;;;6.40;;
79137;SDS011;68544;45.566;10.238;2023-04-24T06:20:30;8.73;;;6.25;;
79137;SDS011;68544;45.566;10.238;2023-04-24T06:22:56;7.70;;;6.40;;
79137;SDS011;68544;45.566;10.238;2023-04-24T06:25:21;7.17;;;5.63;;
79137;SDS011;68544;45.566;10.238;2023-04-24T06:27:46;8.87;;;5.23;;
79137;SDS011;68544;45.566;10.238;2023-04-24T06:30:12;5.97;;;5.37;;
79137;SDS011;68544;45.566;10.238;2023-04-24T06:32:37;5.73;;;4.77;;
79137;SDS011;68544;45.566;10.238;2023-04-24T06:35:03;6.10;;;4.60;;
79137;SDS011;68544;45.566;10.238;2023-04-24T06:37:29;3.88;;;3.50;;
79137;SDS011;68544;45.566;10.238;2023-04-24T06:39:54;4.13;;;3.13;;
79137;SDS011;68544;45.566;10.238;2023-04-24T06:42:19;6.30;;;3.70;;
79137;SDS011;68544;45.566;10.238;2023-04-24T06:44:45;9.00;;;3.85;;
79137;SDS011;68544;45.566;10.238;2023-04-24T06:47:11;5.17;;;4.00;;
79137;SDS011;68544;45.566;10.238;2023-04-24T06:49:38;5.88;;;3.58;;
79137;SDS011;68544;45.566;10.238;2023-04-24T06:52:04;4.05;;;3.05;;
79137;SDS011;68544;45.566;10.238;2023-04-24T06:54:30;4.28;;;3.22;;
79137;SDS011;68544;45.566;10.238;2023-04-24T06:56:56;4.13;;;2.92;;
79137;SDS011;68544;45.566;10.238;2023-04-24T06:59:22;6.75;;;3.30;;
79137;SDS011;68544;45.566;10.238;2023-04-24T07:01:48;3.90;;;3.00;;
79137;SDS011;68544;45.566;10.238;2023-04-24T07:04:14;4.27;;;3.20;;
79137;SDS011;68544;45.566;10.238;2023-04-24T07:06:39;4.85;;;3.33;;
79137;SDS011;68544;45.566;10.238;2023-04-24T07:09:05;3.72;;;3.00;;
79137;SDS011;68544;45.566;10.238;2023-04-24T07:11:30;4.13;;;2.90;;
79137;SDS011;68544;45.566;10.238;2023-04-24T07:13:56;3.78;;;2.60;;
79137;SDS011;68544;45.566;10.238;2023-04-24T07:16:21;4.90;;;3.00;;
79137;SDS011;68544;45.566;10.238;2023-04-24T07:18:47;5.32;;;2.88;;
79137;SDS011;68544;45.566;10.238;2023-04-24T07:21:12;3.23;;;2.60;;
79137;SDS011;68544;45.566;10.238;2023-04-24T07:23:38;3.80;;;2.67;;
79137;SDS011;68544;45.566;10.238;2023-04-24T07:26:03;3.13;;;2.47;;
79137;SDS011;68544;45.566;10.238;2023-04-24T07:28:29;3.13;;;2.50;;
79137;SDS011;68544;45.566;10.238;2023-04-24T07:30:57;5.30;;;2.72;;
79137;SDS011;68544;45.566;10.238;2023-04-24T07:33:24;3.28;;;2.55;;
79137;SDS011;68544;45.566;10.238;2023-04-24T07:35:50;4.97;;;3.00;;
79137;SDS011;68544;45.566;10.238;2023-04-24T07:38:15;4.88;;;3.80;;
79137;SDS011;68544;45.566;10.238;2023-04-24T07:40:41;6.00;;;3.78;;
79137;SDS011;68544;45.566;10.238;2023-04-24T07:43:06;6.77;;;4.13;;
79137;SDS011;68544;45.566;10.238;2023-04-24T07:45:32;5.10;;;4.43;;
79137;SDS011;68544;45.566;10.238;2023-04-24T07:48:01;4.85;;;4.20;;
79137;SDS011;68544;45.566;10.238;2023-04-24T07:50:26;5.37;;;4.57;;
79137;SDS011;68544;45.566;10.238;2023-04-24T07:52:51;4.40;;;3.95;;
79137;SDS011;68544;45.566;10.238;2023-04-24T07:55:17;4.78;;;4.20;;
79137;SDS011;68544;45.566;10.238;2023-04-24T07:57:42;4.47;;;3.60;;
79137;SDS011;68544;45.566;10.238;2023-04-24T08:02:33;4.25;;;3.45;;
79137;SDS011;68544;45.566;10.238;2023-04-24T08:07:23;6.87;;;3.63;;
79137;SDS011;68544;45.566;10.238;2023-04-24T08:12:14;6.47;;;3.20;;
79137;SDS011;68544;45.566;10.238;2023-04-24T08:17:04;3.22;;;2.42;;
79137;SDS011;68544;45.566;10.238;2023-04-24T08:19:30;3.95;;;2.33;;
79137;SDS011;68544;45.566;10.238;2023-04-24T08:21:55;2.45;;;1.90;;
79137;SDS011;68544;45.566;10.238;2023-04-24T08:24:21;1.70;;;1.60;;
79137;SDS011;68544;45.566;10.238;2023-04-24T08:26:47;3.00;;;1.70;;
79137;SDS011;68544;45.566;10.238;2023-04-24T08:29:15;2.30;;;1.45;;
79137;SDS011;68544;45.566;10.238;2023-04-24T08:31:40;3.08;;;1.52;;
79137;SDS011;68544;45.566;10.238;2023-04-24T08:34:06;2.15;;;1.48;;
79137;SDS011;68544;45.566;10.238;2023-04-24T08:36:31;3.05;;;1.70;;
79137;SDS011;68544;45.566;10.238;2023-04-24T08:38:57;1.95;;;1.33;;
79137;SDS011;68544;45.566;10.238;2023-04-24T08:41:22;4.35;;;1.58;;
79137;SDS011;68544;45.566;10.238;2023-04-24T08:43:51;3.17;;;1.30;;
79137;SDS011;68544;45.566;10.238;2023-04-24T08:46:16;1.40;;;1.20;;
79137;SDS011;68544;45.566;10.238;2023-04-24T08:48:43;1.88;;;1.17;;
79137;SDS011;68544;45.566;10.238;2023-04-24T08:51:09;2.00;;;1.48;;
79137;SDS011;68544;45.566;10.238;2023-04-24T08:53:35;2.60;;;1.65;;
79137;SDS011;68544;45.566;10.238;2023-04-24T08:56:01;4.22;;;1.70;;
79137;SDS011;68544;45.566;10.238;2023-04-24T08:58:28;2.40;;;1.77;;
79137;SDS011;68544;45.566;10.238;2023-04-24T09:00:54;2.53;;;1.70;;
79137;SDS011;68544;45.566;10.238;2023-04-24T09:03:20;3.50;;;2.00;;
79137;SDS011;68544;45.566;10.238;2023-04-24T09:05:46;4.00;;;2.20;;
79137;SDS011;68544;45.566;10.238;2023-04-24T09:08:14;2.25;;;1.83;;
79137;SDS011;68544;45.566;10.238;2023-04-24T09:10:42;2.05;;;1.73;;
79137;SDS011;68544;45.566;10.238;2023-04-24T09:13:07;2.25;;;1.75;;
79137;SDS011;68544;45.566;10.238;2023-04-24T09:15:36;2.05;;;1.70;;
79137;SDS011;68544;45.566;10.238;2023-04-24T09:18:05;2.33;;;1.60;;
79137;SDS011;68544;45.566;10.238;2023-04-24T09:20:31;2.40;;;1.90;;
79137;SDS011;68544;45.566;10.238;2023-04-24T09:22:57;2.33;;;1.80;;
79137;SDS011;68544;45.566;10.238;2023-04-24T09:25:25;4.22;;;2.65;;
79137;SDS011;68544;45.566;10.238;2023-04-24T09:27:59;2.25;;;2.05;;
79137;SDS011;68544;45.566;10.238;2023-04-24T09:30:26;4.00;;;2.70;;
79137;SDS011;68544;45.566;10.238;2023-04-24T09:33:13;3.05;;;2.22;;
79137;SDS011;68544;45.566;10.238;2023-04-24T09:35:41;2.80;;;2.10;;
79137;SDS011;68544;45.566;10.238;2023-04-24T09:38:10;4.18;;;2.88;;
79137;SDS011;68544;45.566;10.238;2023-04-24T09:40:36;3.10;;;2.50;;
79137;SDS011;68544;45.566;10.238;2023-04-24T09:43:01;3.83;;;2.08;;
79137;SDS011;68544;45.566;10.238;2023-04-24T09:45:37;2.65;;;2.42;;
79137;SDS011;68544;45.566;10.238;2023-04-24T09:48:04;4.47;;;2.80;;
79137;SDS011;68544;45.566;10.238;2023-04-24T09:50:31;2.90;;;2.70;;
79137;SDS011;68544;45.566;10.238;2023-04-24T09:52:58;4.07;;;2.78;;
79137;SDS011;68544;45.566;10.238;2023-04-24T09:55:24;3.05;;;2.53;;
79137;SDS011;68544;45.566;10.238;2023-04-24T09:57:59;3.38;;;2.80;;
79137;SDS011;68544;45.566;10.238;2023-04-24T10:00:26;3.00;;;2.47;;
79137;SDS011;68544;45.566;10.238;2023-04-24T10:02:56;2.33;;;2.13;;
79137;SDS011;68544;45.566;10.238;2023-04-24T10:05:29;4.90;;;2.78;;
79137;SDS011;68544;45.566;10.238;2023-04-24T10:08:00;2.70;;;2.50;;
79137;SDS011;68544;45.566;10.238;2023-04-24T10:10:26;3.25;;;2.80;;
79137;SDS011;68544;45.566;10.238;2023-04-24T10:12:52;2.97;;;2.75;;
79137;SDS011;68544;45.566;10.238;2023-04-24T10:15:18;3.65;;;3.08;;
79137;SDS011;68544;45.566;10.238;2023-04-24T10:17:47;3.38;;;2.97;;
79137;SDS011;68544;45.566;10.238;2023-04-24T10:20:17;3.50;;;2.80;;
79137;SDS011;68544;45.566;10.238;2023-04-24T10:22:57;3.30;;;3.00;;
79137;SDS011;68544;45.566;10.238;2023-04-24T10:25:24;3.40;;;2.97;;
79137;SDS011;68544;45.566;10.238;2023-04-24T10:27:51;3.47;;;3.17;;
79137;SDS011;68544;45.566;10.238;2023-04-24T10:30:18;3.40;;;2.95;;
79137;SDS011;68544;45.566;10.238;2023-04-24T10:32:44;4.20;;;3.80;;
79137;SDS011;68544;45.566;10.238;2023-04-24T10:35:11;4.15;;;3.67;;
79137;SDS011;68544;45.566;10.238;2023-04-24T10:37:39;3.45;;;3.00;;
79137;SDS011;68544;45.566;10.238;2023-04-24T10:40:07;3.72;;;3.42;;
79137;SDS011;68544;45.566;10.238;2023-04-24T10:42:34;3.30;;;3.00;;
79137;SDS011;68544;45.566;10.238;2023-04-24T10:45:04;3.20;;;2.92;;
79137;SDS011;68544;45.566;10.238;2023-04-24T10:47:41;3.53;;;3.22;;
79137;SDS011;68544;45.566;10.238;2023-04-24T10:50:08;3.60;;;3.30;;
79137;SDS011;68544;45.566;10.238;2023-04-24T10:52:44;4.07;;;3.78;;
79137;SDS011;68544;45.566;10.238;2023-04-24T10:55:12;3.97;;;3.50;;
79137;SDS011;68544;45.566;10.238;2023-04-24T10:57:38;5.00;;;3.17;;
79137;SDS011;68544;45.566;10.238;2023-04-24T11:00:20;4.82;;;3.00;;
79137;SDS011;68544;45.566;10.238;2023-04-24T11:02:47;3.25;;;2.95;;
79137;SDS011;68544;45.566;10.238;2023-04-24T11:05:18;2.53;;;2.30;;
79137;SDS011;68544;45.566;10.238;2023-04-24T11:10:47;3.45;;;2.55;;
79137;SDS011;68544;45.566;10.238;2023-04-24T11:13:22;2.58;;;2.38;;
79137;SDS011;68544;45.566;10.238;2023-04-24T11:18:49;3.75;;;3.03;;
79137;SDS011;68544;45.566;10.238;2023-04-24T11:21:19;2.65;;;2.35;;
79137;SDS011;68544;45.566;10.238;2023-04-24T11:23:45;2.67;;;2.30;;
79137;SDS011;68544;45.566;10.238;2023-04-24T11:26:18;2.45;;;2.20;;
79137;SDS011;68544;45.566;10.238;2023-04-24T11:28:46;3.65;;;3.08;;
79137;SDS011;68544;45.566;10.238;2023-04-24T11:31:33;2.97;;;2.35;;
79137;SDS011;68544;45.566;10.238;2023-04-24T11:34:13;2.67;;;2.10;;
79137;SDS011;68544;45.566;10.238;2023-04-24T11:36:42;2.45;;;2.10;;
79137;SDS011;68544;45.566;10.238;2023-04-24T11:39:09;3.25;;;2.47;;
79137;SDS011;68544;45.566;10.238;2023-04-24T11:41:36;4.82;;;3.13;;
79137;SDS011;68544;45.566;10.238;2023-04-24T11:44:01;3.67;;;3.17;;
79137;SDS011;68544;45.566;10.238;2023-04-24T11:46:28;4.90;;;3.88;;
79137;SDS011;68544;45.566;10.238;2023-04-24T11:48:56;3.65;;;3.20;;
79137;SDS011;68544;45.566;10.238;2023-04-24T11:51:22;3.83;;;3.13;;
79137;SDS011;68544;45.566;10.238;2023-04-24T11:53:50;5.18;;;3.20;;
79137;SDS011;68544;45.566;10.238;2023-04-24T11:56:18;3.65;;;2.80;;
79137;SDS011;68544;45.566;10.238;2023-04-24T11:58:47;3.17;;;2.88;;
79137;SDS011;68544;45.566;10.238;2023-04-24T12:01:12;3.22;;;2.80;;
79137;SDS011;68544;45.566;10.238;2023-04-24T12:03:37;3.17;;;2.80;;
79137;SDS011;68544;45.566;10.238;2023-04-24T12:06:06;2.58;;;2.38;;
79137;SDS011;68544;45.566;10.238;2023-04-24T12:08:33;4.20;;;2.60;;
79137;SDS011;68544;45.566;10.238;2023-04-24T12:11:02;3.90;;;2.65;;
79137;SDS011;68544;45.566;10.238;2023-04-24T12:13:29;3.08;;;2.30;;
79137;SDS011;68544;45.566;10.238;2023-04-24T12:15:56;4.50;;;2.95;;
79137;SDS011;68544;45.566;10.238;2023-04-24T12:18:22;3.10;;;2.67;;
79137;SDS011;68544;45.566;10.238;2023-04-24T12:20:48;2.55;;;2.00;;
79137;SDS011;68544;45.566;10.238;2023-04-24T12:23:14;4.93;;;2.53;;
79137;SDS011;68544;45.566;10.238;2023-04-24T12:25:39;2.97;;;2.40;;
79137;SDS011;68544;45.566;10.238;2023-04-24T12:30:32;2.35;;;2.10;;
79137;SDS011;68544;45.566;10.238;2023-04-24T12:33:00;2.58;;;2.00;;
79137;SDS011;68544;45.566;10.238;2023-04-24T12:35:27;2.00;;;1.80;;
79137;SDS011;68544;45.566;10.238;2023-04-24T12:37:54;2.17;;;1.73;;
79137;SDS011;68544;45.566;10.238;2023-04-24T12:40:20;2.33;;;1.92;;
79137;SDS011;68544;45.566;10.238;2023-04-24T12:42:47;2.10;;;1.90;;
79137;SDS011;68544;45.566;10.238;2023-04-24T12:45:16;2.42;;;2.05;;
79137;SDS011;68544;45.566;10.238;2023-04-24T12:47:44;4.20;;;2.40;;
79137;SDS011;68544;45.566;10.238;2023-04-24T12:50:10;2.88;;;2.38;;
79137;SDS011;68544;45.566;10.238;2023-04-24T12:52:37;2.50;;;2.30;;
79137;SDS011;68544;45.566;10.238;2023-04-24T12:55:04;3.05;;;2.50;;
79137;SDS011;68544;45.566;10.238;2023-04-24T12:57:32;3.47;;;2.20;;
79137;SDS011;68544;45.566;10.238;2023-04-24T12:59:58;3.85;;;2.65;;
79137;SDS011;68544;45.566;10.238;2023-04-24T13:02:24;2.92;;;2.70;;
79137;SDS011;68544;45.566;10.238;2023-04-24T13:04:51;3.38;;;2.65;;
79137;SDS011;68544;45.566;10.238;2023-04-24T13:07:17;3.33;;;3.03;;
79137;SDS011;68544;45.566;10.238;2023-04-24T13:09:43;3.53;;;2.78;;
79137;SDS011;68544;45.566;10.238;2023-04-24T13:12:09;6.03;;;3.70;;
79137;SDS011;68544;45.566;10.238;2023-04-24T13:14:35;4.60;;;3.60;;
79137;SDS011;68544;45.566;10.238;2023-04-24T13:17:01;4.60;;;4.20;;
79137;SDS011;68544;45.566;10.238;2023-04-24T13:19:27;4.45;;;4.05;;
79137;SDS011;68544;45.566;10.238;2023-04-24T13:24:25;4.10;;;3.78;;
79137;SDS011;68544;45.566;10.238;2023-04-24T13:26:51;4.50;;;4.10;;
79137;SDS011;68544;45.566;10.238;2023-04-24T13:29:19;5.22;;;4.72;;
79137;SDS011;68544;45.566;10.238;2023-04-24T13:34:11;5.88;;;5.07;;
79137;SDS011;68544;45.566;10.238;2023-04-24T13:36:37;5.28;;;4.57;;
79137;SDS011;68544;45.566;10.238;2023-04-24T13:41:30;6.00;;;5.33;;
79137;SDS011;68544;45.566;10.238;2023-04-24T13:46:21;5.97;;;5.35;;
79137;SDS011;68544;45.566;10.238;2023-04-24T13:48:46;5.80;;;5.30;;
79137;SDS011;68544;45.566;10.238;2023-04-24T13:51:11;6.57;;;5.25;;
79137;SDS011;68544;45.566;10.238;2023-04-24T13:56:03;8.82;;;5.97;;
79137;SDS011;68544;45.566;10.238;2023-04-24T13:58:29;8.95;;;7.00;;
79137;SDS011;68544;45.566;10.238;2023-04-24T14:03:20;6.57;;;5.90;;
79137;SDS011;68544;45.566;10.238;2023-04-24T14:05:45;7.20;;;6.53;;
79137;SDS011;68544;45.566;10.238;2023-04-24T14:08:11;7.88;;;7.15;;
79137;SDS011;68544;45.566;10.238;2023-04-24T14:13:02;8.65;;;6.57;;
79137;SDS011;68544;45.566;10.238;2023-04-24T14:17:53;7.95;;;7.15;;
79137;SDS011;68544;45.566;10.238;2023-04-24T14:22:43;6.70;;;5.47;;
79137;SDS011;68544;45.566;10.238;2023-04-24T14:27:34;6.80;;;5.88;;
79137;SDS011;68544;45.566;10.238;2023-04-24T14:32:25;3.28;;;1.00;;
79137;SDS011;68544;45.566;10.238;2023-04-24T14:34:50;2.08;;;0.57;;
79137;SDS011;68544;45.566;10.238;2023-04-24T14:39:41;2.25;;;0.47;;
79137;SDS011;68544;45.566;10.238;2023-04-24T14:44:31;0.60;;;0.50;;
79137;SDS011;68544;45.566;10.238;2023-04-24T14:49:23;1.90;;;0.88;;
79137;SDS011;68544;45.566;10.238;2023-04-24T14:54:13;3.20;;;0.50;;
79137;SDS011;68544;45.566;10.238;2023-04-24T14:59:05;1.80;;;0.50;;
79137;SDS011;68544;45.566;10.238;2023-04-24T15:03:57;6.35;;;0.63;;
79137;SDS011;68544;45.566;10.238;2023-04-24T15:08:47;2.42;;;0.40;;
79137;SDS011;68544;45.566;10.238;2023-04-24T15:13:38;1.02;;;0.40;;
79137;SDS011;68544;45.566;10.238;2023-04-24T15:18:30;0.73;;;0.40;;
79137;SDS011;68544;45.566;10.238;2023-04-24T15:23:21;1.33;;;0.40;;
79137;SDS011;68544;45.566;10.238;2023-04-24T15:28:12;0.60;;;0.40;;
79137;SDS011;68544;45.566;10.238;2023-04-24T15:33:02;1.25;;;0.50;;
79137;SDS011;68544;45.566;10.238;2023-04-24T15:37:53;1.08;;;0.45;;
79137;SDS011;68544;45.566;10.238;2023-04-24T15:40:18;1.02;;;0.40;;
79137;SDS011;68544;45.566;10.238;2023-04-24T15:42:44;0.70;;;0.40;;
79137;SDS011;68544;45.566;10.238;2023-04-24T15:47:35;0.90;;;0.50;;
79137;SDS011;68544;45.566;10.238;2023-04-24T15:52:26;2.58;;;0.57;;
79137;SDS011;68544;45.566;10.238;2023-04-24T15:57:16;1.83;;;0.68;;
79137;SDS011;68544;45.566;10.238;2023-04-24T15:59:42;0.68;;;0.50;;
79137;SDS011;68544;45.566;10.238;2023-04-24T16:04:35;2.35;;;0.60;;
79137;SDS011;68544;45.566;10.238;2023-04-24T16:07:01;1.40;;;0.50;;
79137;SDS011;68544;45.566;10.238;2023-04-24T16:11:51;1.42;;;0.70;;